sensor_id;sensor_type;location;lat;lon;timestamp;temperature;humidity
16578;DHT22;8401;52.528;13.340;2023-07-13T00:02:16;20.50;99.90
16578;DHT22;8401;52.528;13.340;2023-07-13T00:04:42;20.30;99.90
16578;DHT22;8401;52.528;13.340;2023-07-13T00:07:08;20.30;99.90
16578;DHT22;8401;52.528;13.340;2023-07-13T00:09:34;20.30;99.90
16578;DHT22;8401;52.528;13.340;2023-07-13T00:12:01;20.40;99.90
16578;DHT22;8401;52.528;13.340;2023-07-13T00:14:28;20.50;99.90
16578;DHT22;8401;52.528;13.340;2023-07-13T00:16:55;20.40;99.90
16578;DHT22;8401;52.528;13.340;2023-07-13T00:19:21;20.40;99.90
16578;DHT22;8401;52.528;13.340;2023-07-13T00:21:47;20.40;99.90
16578;DHT22;8401;52.528;13.340;2023-07-13T00:24:16;20.40;99.90
16578;DHT22;8401;52.528;13.340;2023-07-13T00:26:47;20.30;99.90
16578;DHT22;8401;52.528;13.340;2023-07-13T00:29:13;20.20;99.90
16578;DHT22;8401;52.528;13.340;2023-07-13T00:31:39;20.10;99.90
16578;DHT22;8401;52.528;13.340;2023-07-13T00:34:05;20.20;99.90
16578;DHT22;8401;52.528;13.340;2023-07-13T00:36:31;20.20;99.90
16578;DHT22;8401;52.528;13.340;2023-07-13T00:38:57;20.20;99.90
16578;DHT22;8401;52.528;13.340;2023-07-13T00:41:23;20.20;99.90
16578;DHT22;8401;52.528;13.340;2023-07-13T00:43:48;20.10;99.90
16578;DHT22;8401;52.528;13.340;2023-07-13T00:48:48;20.00;99.90
16578;DHT22;8401;52.528;13.340;2023-07-13T00:51:18;20.10;99.90
16578;DHT22;8401;52.528;13.340;2023-07-13T00:53:45;20.10;99.90
16578;DHT22;8401;52.528;13.340;2023-07-13T00:56:10;20.10;99.90
16578;DHT22;8401;52.528;13.340;2023-07-13T00:58:36;20.10;99.90
16578;DHT22;8401;52.528;13.340;2023-07-13T01:01:02;20.10;99.90
16578;DHT22;8401;52.528;13.340;2023-07-13T01:03:28;20.10;99.90
16578;DHT22;8401;52.528;13.340;2023-07-13T01:05:58;20.10;99.90
16578;DHT22;8401;52.528;13.340;2023-07-13T01:08:23;20.10;99.90
16578;DHT22;8401;52.528;13.340;2023-07-13T01:10:54;20.10;99.90
16578;DHT22;8401;52.528;13.340;2023-07-13T01:13:20;20.00;99.90
16578;DHT22;8401;52.528;13.340;2023-07-13T01:15:48;20.00;99.90
16578;DHT22;8401;52.528;13.340;2023-07-13T01:18:18;19.90;99.90
16578;DHT22;8401;52.528;13.340;2023-07-13T01:20:56;19.90;99.90
16578;DHT22;8401;52.528;13.340;2023-07-13T01:23:23;20.10;99.90
16578;DHT22;8401;52.528;13.340;2023-07-13T01:25:50;20.10;99.90
16578;DHT22;8401;52.528;13.340;2023-07-13T01:28:16;20.10;99.90
16578;DHT22;8401;52.528;13.340;2023-07-13T01:30:43;20.10;99.90
16578;DHT22;8401;52.528;13.340;2023-07-13T01:33:12;20.10;99.90
16578;DHT22;8401;52.528;13.340;2023-07-13T01:35:37;20.10;99.90
16578;DHT22;8401;52.528;13.340;2023-07-13T01:38:04;20.10;99.90
16578;DHT22;8401;52.528;13.340;2023-07-13T01:40:30;20.10;99.90
16578;DHT22;8401;52.528;13.340;2023-07-13T01:42:56;20.10;99.90
16578;DHT22;8401;52.528;13.340;2023-07-13T01:45:21;20.10;99.90
16578;DHT22;8401;52.528;13.340;2023-07-13T01:47:47;20.00;99.90
16578;DHT22;8401;52.528;13.340;2023-07-13T01:50:13;20.10;99.90
16578;DHT22;8401;52.528;13.340;2023-07-13T01:52:38;20.00;99.90
16578;DHT22;8401;52.528;13.340;2023-07-13T01:55:05;20.10;99.90
16578;DHT22;8401;52.528;13.340;2023-07-13T01:57:30;20.20;99.90
16578;DHT22;8401;52.528;13.340;2023-07-13T01:59:56;20.10;99.90
16578;DHT22;8401;52.528;13.340;2023-07-13T02:02:22;20.00;99.90
16578;DHT22;8401;52.528;13.340;2023-07-13T02:04:47;20.00;99.90
16578;DHT22;8401;52.528;13.340;2023-07-13T02:07:13;20.00;99.90
16578;DHT22;8401;52.528;13.340;2023-07-13T02:09:40;20.10;99.90
16578;DHT22;8401;52.528;13.340;2023-07-13T02:12:08;20.20;99.90
16578;DHT22;8401;52.528;13.340;2023-07-13T02:14:34;20.30;99.90
16578;DHT22;8401;52.528;13.340;2023-07-13T02:16:59;20.40;99.90
16578;DHT22;8401;52.528;13.340;2023-07-13T02:19:25;20.40;99.90
16578;DHT22;8401;52.528;13.340;2023-07-13T02:21:51;20.40;99.90
16578;DHT22;8401;52.528;13.340;2023-07-13T02:24:16;20.40;99.90
16578;DHT22;8401;52.528;13.340;2023-07-13T02:26:45;20.30;99.90
16578;DHT22;8401;52.528;13.340;2023-07-13T02:29:11;20.30;99.90
16578;DHT22;8401;52.528;13.340;2023-07-13T02:31:36;20.30;99.90
16578;DHT22;8401;52.528;13.340;2023-07-13T02:34:02;20.20;99.90
16578;DHT22;8401;52.528;13.340;2023-07-13T02:36:30;20.00;99.90
16578;DHT22;8401;52.528;13.340;2023-07-13T02:38:55;20.00;99.90
16578;DHT22;8401;52.528;13.340;2023-07-13T02:41:21;19.90;99.90
16578;DHT22;8401;52.528;13.340;2023-07-13T02:43:48;19.80;99.90
16578;DHT22;8401;52.528;13.340;2023-07-13T02:46:14;19.80;99.90
16578;DHT22;8401;52.528;13.340;2023-07-13T02:48:40;19.90;99.90
16578;DHT22;8401;52.528;13.340;2023-07-13T02:51:06;20.00;99.90
16578;DHT22;8401;52.528;13.340;2023-07-13T02:53:33;19.80;99.90
16578;DHT22;8401;52.528;13.340;2023-07-13T02:56:01;19.80;99.90
16578;DHT22;8401;52.528;13.340;2023-07-13T02:58:27;19.70;99.90
16578;DHT22;8401;52.528;13.340;2023-07-13T03:00:52;19.60;99.90
16578;DHT22;8401;52.528;13.340;2023-07-13T03:03:19;19.60;99.90
16578;DHT22;8401;52.528;13.340;2023-07-13T03:05:45;19.50;99.90
16578;DHT22;8401;52.528;13.340;2023-07-13T03:08:15;19.40;99.90
16578;DHT22;8401;52.528;13.340;2023-07-13T03:10:41;19.50;99.90
16578;DHT22;8401;52.528;13.340;2023-07-13T03:13:07;19.50;99.90
16578;DHT22;8401;52.528;13.340;2023-07-13T03:15:32;19.50;99.90
16578;DHT22;8401;52.528;13.340;2023-07-13T03:17:58;19.50;99.90
16578;DHT22;8401;52.528;13.340;2023-07-13T03:20:24;19.50;99.90
16578;DHT22;8401;52.528;13.340;2023-07-13T03:22:50;19.40;99.90
16578;DHT22;8401;52.528;13.340;2023-07-13T03:25:15;19.30;99.90
16578;DHT22;8401;52.528;13.340;2023-07-13T03:27:41;19.40;99.90
16578;DHT22;8401;52.528;13.340;2023-07-13T03:30:07;19.40;99.90
16578;DHT22;8401;52.528;13.340;2023-07-13T03:32:33;19.40;99.90
16578;DHT22;8401;52.528;13.340;2023-07-13T03:34:59;19.20;99.90
16578;DHT22;8401;52.528;13.340;2023-07-13T03:37:24;19.10;99.90
16578;DHT22;8401;52.528;13.340;2023-07-13T03:39:50;19.10;99.90
16578;DHT22;8401;52.528;13.340;2023-07-13T03:42:16;19.00;99.90
16578;DHT22;8401;52.528;13.340;2023-07-13T03:44:42;19.10;99.90
16578;DHT22;8401;52.528;13.340;2023-07-13T03:47:11;19.10;99.90
16578;DHT22;8401;52.528;13.340;2023-07-13T03:49:37;19.10;99.90
16578;DHT22;8401;52.528;13.340;2023-07-13T03:52:03;19.00;99.90
16578;DHT22;8401;52.528;13.340;2023-07-13T03:54:28;19.00;99.90
16578;DHT22;8401;52.528;13.340;2023-07-13T03:56:54;19.10;99.90
16578;DHT22;8401;52.528;13.340;2023-07-13T03:59:20;19.00;99.90
16578;DHT22;8401;52.528;13.340;2023-07-13T04:01:46;19.10;99.90
16578;DHT22;8401;52.528;13.340;2023-07-13T04:04:12;19.10;99.90
16578;DHT22;8401;52.528;13.340;2023-07-13T04:06:37;19.00;99.90
16578;DHT22;8401;52.528;13.340;2023-07-13T04:09:03;19.20;99.90
16578;DHT22;8401;52.528;13.340;2023-07-13T04:11:34;19.30;99.90
16578;DHT22;8401;52.528;13.340;2023-07-13T04:14:01;19.20;99.90
16578;DHT22;8401;52.528;13.340;2023-07-13T04:16:27;19.20;99.90
16578;DHT22;8401;52.528;13.340;2023-07-13T04:18:54;19.10;99.90
16578;DHT22;8401;52.528;13.340;2023-07-13T04:21:25;19.20;99.90
16578;DHT22;8401;52.528;13.340;2023-07-13T04:23:50;19.30;99.90
16578;DHT22;8401;52.528;13.340;2023-07-13T04:26:16;19.40;99.90
16578;DHT22;8401;52.528;13.340;2023-07-13T04:28:42;19.20;99.90
16578;DHT22;8401;52.528;13.340;2023-07-13T04:31:07;19.30;99.90
16578;DHT22;8401;52.528;13.340;2023-07-13T04:33:33;19.40;99.90
16578;DHT22;8401;52.528;13.340;2023-07-13T04:35:59;19.30;99.90
16578;DHT22;8401;52.528;13.340;2023-07-13T04:38:27;19.20;99.90
16578;DHT22;8401;52.528;13.340;2023-07-13T04:40:55;19.30;99.90
16578;DHT22;8401;52.528;13.340;2023-07-13T04:43:21;19.30;99.90
16578;DHT22;8401;52.528;13.340;2023-07-13T04:45:47;19.40;99.90
16578;DHT22;8401;52.528;13.340;2023-07-13T04:48:13;19.40;99.90
16578;DHT22;8401;52.528;13.340;2023-07-13T04:50:39;19.50;99.90
16578;DHT22;8401;52.528;13.340;2023-07-13T04:53:04;19.40;99.90
16578;DHT22;8401;52.528;13.340;2023-07-13T04:55:31;19.30;99.90
16578;DHT22;8401;52.528;13.340;2023-07-13T04:57:57;19.30;99.90
16578;DHT22;8401;52.528;13.340;2023-07-13T05:00:26;19.30;99.90
16578;DHT22;8401;52.528;13.340;2023-07-13T05:02:53;19.40;99.90
16578;DHT22;8401;52.528;13.340;2023-07-13T05:05:19;19.50;99.90
16578;DHT22;8401;52.528;13.340;2023-07-13T05:07:45;19.50;99.90
16578;DHT22;8401;52.528;13.340;2023-07-13T05:10:10;19.50;99.90
16578;DHT22;8401;52.528;13.340;2023-07-13T05:12:36;19.50;99.90
16578;DHT22;8401;52.528;13.340;2023-07-13T05:15:03;19.50;99.90
16578;DHT22;8401;52.528;13.340;2023-07-13T05:17:29;19.60;99.90
16578;DHT22;8401;52.528;13.340;2023-07-13T05:19:54;19.70;99.90
16578;DHT22;8401;52.528;13.340;2023-07-13T05:22:20;19.70;99.90
16578;DHT22;8401;52.528;13.340;2023-07-13T05:24:46;19.80;99.90
16578;DHT22;8401;52.528;13.340;2023-07-13T05:27:11;19.80;99.90
16578;DHT22;8401;52.528;13.340;2023-07-13T05:29:37;19.80;99.90
16578;DHT22;8401;52.528;13.340;2023-07-13T05:32:03;20.00;99.90
16578;DHT22;8401;52.528;13.340;2023-07-13T05:34:29;19.90;99.90
16578;DHT22;8401;52.528;13.340;2023-07-13T05:36:55;20.00;99.90
16578;DHT22;8401;52.528;13.340;2023-07-13T05:39:20;20.10;99.90
16578;DHT22;8401;52.528;13.340;2023-07-13T05:41:46;20.00;99.90
16578;DHT22;8401;52.528;13.340;2023-07-13T05:44:12;20.00;99.90
16578;DHT22;8401;52.528;13.340;2023-07-13T05:46:37;20.00;99.90
16578;DHT22;8401;52.528;13.340;2023-07-13T05:49:03;20.00;99.90
16578;DHT22;8401;52.528;13.340;2023-07-13T05:51:29;20.10;99.90
16578;DHT22;8401;52.528;13.340;2023-07-13T05:53:55;20.20;99.90
16578;DHT22;8401;52.528;13.340;2023-07-13T05:56:21;20.20;99.90
16578;DHT22;8401;52.528;13.340;2023-07-13T05:58:48;20.30;99.90
16578;DHT22;8401;52.528;13.340;2023-07-13T06:01:15;20.10;99.90
16578;DHT22;8401;52.528;13.340;2023-07-13T06:03:41;20.10;99.90
16578;DHT22;8401;52.528;13.340;2023-07-13T06:06:09;20.10;99.90
16578;DHT22;8401;52.528;13.340;2023-07-13T06:08:35;20.30;99.90
16578;DHT22;8401;52.528;13.340;2023-07-13T06:11:18;20.40;99.90
16578;DHT22;8401;52.528;13.340;2023-07-13T06:13:44;20.60;99.90
16578;DHT22;8401;52.528;13.340;2023-07-13T06:16:10;20.70;99.90
16578;DHT22;8401;52.528;13.340;2023-07-13T06:18:37;20.70;99.90
16578;DHT22;8401;52.528;13.340;2023-07-13T06:21:18;20.80;99.90
16578;DHT22;8401;52.528;13.340;2023-07-13T06:23:45;21.00;99.90
16578;DHT22;8401;52.528;13.340;2023-07-13T06:26:13;21.10;99.90
16578;DHT22;8401;52.528;13.340;2023-07-13T06:28:39;21.00;99.90
16578;DHT22;8401;52.528;13.340;2023-07-13T06:31:10;21.00;99.90
16578;DHT22;8401;52.528;13.340;2023-07-13T06:33:36;20.80;99.90
16578;DHT22;8401;52.528;13.340;2023-07-13T06:36:03;20.90;99.90
16578;DHT22;8401;52.528;13.340;2023-07-13T06:38:30;20.90;99.90
16578;DHT22;8401;52.528;13.340;2023-07-13T06:40:56;21.00;99.90
16578;DHT22;8401;52.528;13.340;2023-07-13T06:43:22;21.10;99.90
16578;DHT22;8401;52.528;13.340;2023-07-13T06:45:49;21.30;99.90
16578;DHT22;8401;52.528;13.340;2023-07-13T06:48:19;21.40;99.90
16578;DHT22;8401;52.528;13.340;2023-07-13T06:50:45;21.40;99.90
16578;DHT22;8401;52.528;13.340;2023-07-13T06:53:12;21.40;99.90
16578;DHT22;8401;52.528;13.340;2023-07-13T06:55:39;21.50;99.90
16578;DHT22;8401;52.528;13.340;2023-07-13T06:58:05;21.50;99.90
16578;DHT22;8401;52.528;13.340;2023-07-13T07:00:30;21.70;99.90
16578;DHT22;8401;52.528;13.340;2023-07-13T07:02:56;21.60;99.90
16578;DHT22;8401;52.528;13.340;2023-07-13T07:05:22;21.60;99.90
16578;DHT22;8401;52.528;13.340;2023-07-13T07:07:51;21.80;99.90
16578;DHT22;8401;52.528;13.340;2023-07-13T07:10:18;21.70;99.90
16578;DHT22;8401;52.528;13.340;2023-07-13T07:12:44;21.70;99.90
16578;DHT22;8401;52.528;13.340;2023-07-13T07:15:10;21.80;99.90
16578;DHT22;8401;52.528;13.340;2023-07-13T07:17:36;22.40;99.90
16578;DHT22;8401;52.528;13.340;2023-07-13T07:20:02;22.30;99.90
16578;DHT22;8401;52.528;13.340;2023-07-13T07:22:29;22.50;99.90
16578;DHT22;8401;52.528;13.340;2023-07-13T07:24:56;22.80;99.90
16578;DHT22;8401;52.528;13.340;2023-07-13T07:27:21;22.50;99.90
16578;DHT22;8401;52.528;13.340;2023-07-13T07:29:47;22.40;99.90
16578;DHT22;8401;52.528;13.340;2023-07-13T07:32:13;22.60;99.90
16578;DHT22;8401;52.528;13.340;2023-07-13T07:34:39;22.50;99.90
16578;DHT22;8401;52.528;13.340;2023-07-13T07:37:04;22.80;99.90
16578;DHT22;8401;52.528;13.340;2023-07-13T07:39:30;22.70;99.90
16578;DHT22;8401;52.528;13.340;2023-07-13T07:41:56;22.70;99.90
16578;DHT22;8401;52.528;13.340;2023-07-13T07:44:22;22.60;99.90
16578;DHT22;8401;52.528;13.340;2023-07-13T07:46:48;22.40;99.90
16578;DHT22;8401;52.528;13.340;2023-07-13T07:49:14;22.50;99.90
16578;DHT22;8401;52.528;13.340;2023-07-13T07:51:40;22.70;99.90
16578;DHT22;8401;52.528;13.340;2023-07-13T07:54:06;22.80;99.90
16578;DHT22;8401;52.528;13.340;2023-07-13T07:56:32;22.90;99.90
16578;DHT22;8401;52.528;13.340;2023-07-13T07:58:58;23.00;99.90
16578;DHT22;8401;52.528;13.340;2023-07-13T08:01:24;22.80;99.90
16578;DHT22;8401;52.528;13.340;2023-07-13T08:03:50;22.80;99.90
16578;DHT22;8401;52.528;13.340;2023-07-13T08:06:15;22.90;99.90
16578;DHT22;8401;52.528;13.340;2023-07-13T08:08:41;22.80;99.90
16578;DHT22;8401;52.528;13.340;2023-07-13T08:11:08;23.10;99.90
16578;DHT22;8401;52.528;13.340;2023-07-13T08:13:34;23.90;99.90
16578;DHT22;8401;52.528;13.340;2023-07-13T08:16:00;24.10;99.90
16578;DHT22;8401;52.528;13.340;2023-07-13T08:18:26;23.90;99.90
16578;DHT22;8401;52.528;13.340;2023-07-13T08:20:53;23.70;99.90
16578;DHT22;8401;52.528;13.340;2023-07-13T08:23:21;23.70;99.90
16578;DHT22;8401;52.528;13.340;2023-07-13T08:25:54;24.10;99.90
16578;DHT22;8401;52.528;13.340;2023-07-13T08:28:21;24.30;99.90
16578;DHT22;8401;52.528;13.340;2023-07-13T08:30:47;24.60;99.90
16578;DHT22;8401;52.528;13.340;2023-07-13T08:33:15;24.30;99.90
16578;DHT22;8401;52.528;13.340;2023-07-13T08:35:41;24.20;99.90
16578;DHT22;8401;52.528;13.340;2023-07-13T08:38:07;24.20;99.90
16578;DHT22;8401;52.528;13.340;2023-07-13T08:40:33;24.20;99.90
16578;DHT22;8401;52.528;13.340;2023-07-13T08:42:59;23.70;99.90
16578;DHT22;8401;52.528;13.340;2023-07-13T08:48:35;23.10;99.90
16578;DHT22;8401;52.528;13.340;2023-07-13T08:51:28;23.10;99.90
16578;DHT22;8401;52.528;13.340;2023-07-13T08:54:00;23.10;99.90
16578;DHT22;8401;52.528;13.340;2023-07-13T08:56:29;23.30;99.90
16578;DHT22;8401;52.528;13.340;2023-07-13T08:58:57;24.30;99.90
16578;DHT22;8401;52.528;13.340;2023-07-13T09:04:22;27.00;97.10
16578;DHT22;8401;52.528;13.340;2023-07-13T09:09:29;27.70;95.20
16578;DHT22;8401;52.528;13.340;2023-07-13T09:14:57;26.60;95.40
16578;DHT22;8401;52.528;13.340;2023-07-13T09:17:34;26.70;95.00
16578;DHT22;8401;52.528;13.340;2023-07-13T09:20:10;27.20;94.90
16578;DHT22;8401;52.528;13.340;2023-07-13T09:22:40;27.90;93.40
16578;DHT22;8401;52.528;13.340;2023-07-13T09:27:39;29.20;91.80
16578;DHT22;8401;52.528;13.340;2023-07-13T09:32:43;30.50;90.10
16578;DHT22;8401;52.528;13.340;2023-07-13T09:35:17;31.20;87.90
16578;DHT22;8401;52.528;13.340;2023-07-13T09:37:45;31.20;86.40
16578;DHT22;8401;52.528;13.340;2023-07-13T09:40:26;30.50;84.80
16578;DHT22;8401;52.528;13.340;2023-07-13T09:42:54;30.40;87.00
16578;DHT22;8401;52.528;13.340;2023-07-13T09:45:28;30.10;85.10
16578;DHT22;8401;52.528;13.340;2023-07-13T09:48:15;29.20;84.80
16578;DHT22;8401;52.528;13.340;2023-07-13T09:50:42;29.80;85.10
16578;DHT22;8401;52.528;13.340;2023-07-13T09:53:13;29.80;84.80
16578;DHT22;8401;52.528;13.340;2023-07-13T09:55:40;29.40;85.20
16578;DHT22;8401;52.528;13.340;2023-07-13T09:58:16;29.40;86.40
16578;DHT22;8401;52.528;13.340;2023-07-13T10:00:44;29.80;85.40
16578;DHT22;8401;52.528;13.340;2023-07-13T10:03:22;30.10;84.70
16578;DHT22;8401;52.528;13.340;2023-07-13T10:05:50;29.30;86.10
16578;DHT22;8401;52.528;13.340;2023-07-13T10:10:51;29.60;86.50
16578;DHT22;8401;52.528;13.340;2023-07-13T10:13:31;29.80;84.90
16578;DHT22;8401;52.528;13.340;2023-07-13T10:15:58;29.40;84.60
16578;DHT22;8401;52.528;13.340;2023-07-13T10:18:25;29.70;84.40
16578;DHT22;8401;52.528;13.340;2023-07-13T10:21:08;29.70;84.90
16578;DHT22;8401;52.528;13.340;2023-07-13T10:23:35;29.90;84.60
16578;DHT22;8401;52.528;13.340;2023-07-13T10:26:01;29.10;84.80
16578;DHT22;8401;52.528;13.340;2023-07-13T10:28:31;29.30;85.30
16578;DHT22;8401;52.528;13.340;2023-07-13T10:31:00;28.50;85.90
16578;DHT22;8401;52.528;13.340;2023-07-13T10:33:29;28.80;85.60
16578;DHT22;8401;52.528;13.340;2023-07-13T10:36:12;29.30;84.70
16578;DHT22;8401;52.528;13.340;2023-07-13T10:38:39;29.30;84.30
16578;DHT22;8401;52.528;13.340;2023-07-13T10:41:10;28.30;85.10
16578;DHT22;8401;52.528;13.340;2023-07-13T10:43:41;27.80;86.70
16578;DHT22;8401;52.528;13.340;2023-07-13T10:46:11;28.50;86.00
16578;DHT22;8401;52.528;13.340;2023-07-13T10:48:39;29.00;84.00
16578;DHT22;8401;52.528;13.340;2023-07-13T10:51:06;28.10;85.00
16578;DHT22;8401;52.528;13.340;2023-07-13T10:53:34;27.40;86.40
16578;DHT22;8401;52.528;13.340;2023-07-13T10:56:24;26.90;87.70
16578;DHT22;8401;52.528;13.340;2023-07-13T11:01:56;27.20;88.50
16578;DHT22;8401;52.528;13.340;2023-07-13T11:04:24;27.40;87.70
16578;DHT22;8401;52.528;13.340;2023-07-13T11:06:55;27.50;86.10
16578;DHT22;8401;52.528;13.340;2023-07-13T11:09:36;28.30;85.30
16578;DHT22;8401;52.528;13.340;2023-07-13T11:12:08;29.20;83.80
16578;DHT22;8401;52.528;13.340;2023-07-13T11:19:53;31.20;79.10
16578;DHT22;8401;52.528;13.340;2023-07-13T11:22:24;30.20;79.80
16578;DHT22;8401;52.528;13.340;2023-07-13T11:25:01;30.40;80.60
16578;DHT22;8401;52.528;13.340;2023-07-13T11:27:41;30.10;79.20
16578;DHT22;8401;52.528;13.340;2023-07-13T11:36:04;30.80;74.80
16578;DHT22;8401;52.528;13.340;2023-07-13T11:40:56;30.80;73.90
16578;DHT22;8401;52.528;13.340;2023-07-13T11:43:23;29.70;73.60
16578;DHT22;8401;52.528;13.340;2023-07-13T11:45:50;29.10;74.80
16578;DHT22;8401;52.528;13.340;2023-07-13T11:50:54;29.90;74.80
16578;DHT22;8401;52.528;13.340;2023-07-13T11:53:20;30.40;75.30
16578;DHT22;8401;52.528;13.340;2023-07-13T11:55:45;30.70;74.90
16578;DHT22;8401;52.528;13.340;2023-07-13T11:58:14;31.30;74.10
16578;DHT22;8401;52.528;13.340;2023-07-13T12:00:42;30.70;74.80
16578;DHT22;8401;52.528;13.340;2023-07-13T12:03:11;29.60;76.60
16578;DHT22;8401;52.528;13.340;2023-07-13T12:05:37;29.40;76.30
16578;DHT22;8401;52.528;13.340;2023-07-13T12:08:19;29.70;76.40
16578;DHT22;8401;52.528;13.340;2023-07-13T12:10:46;28.80;77.20
16578;DHT22;8401;52.528;13.340;2023-07-13T12:13:13;28.10;78.00
16578;DHT22;8401;52.528;13.340;2023-07-13T12:15:41;27.80;78.70
16578;DHT22;8401;52.528;13.340;2023-07-13T12:18:17;27.70;79.00
16578;DHT22;8401;52.528;13.340;2023-07-13T12:20:44;28.30;79.70
16578;DHT22;8401;52.528;13.340;2023-07-13T12:25:52;27.90;81.30
16578;DHT22;8401;52.528;13.340;2023-07-13T12:31:33;27.70;79.20
16578;DHT22;8401;52.528;13.340;2023-07-13T12:34:15;27.70;79.60
16578;DHT22;8401;52.528;13.340;2023-07-13T12:36:56;27.70;79.20
16578;DHT22;8401;52.528;13.340;2023-07-13T12:39:23;27.90;78.60
16578;DHT22;8401;52.528;13.340;2023-07-13T12:41:51;27.60;78.60
16578;DHT22;8401;52.528;13.340;2023-07-13T12:44:20;27.60;78.00
16578;DHT22;8401;52.528;13.340;2023-07-13T12:47:12;27.80;76.10
16578;DHT22;8401;52.528;13.340;2023-07-13T12:49:42;27.80;76.60
16578;DHT22;8401;52.528;13.340;2023-07-13T12:52:36;27.50;77.10
16578;DHT22;8401;52.528;13.340;2023-07-13T12:55:17;27.20;76.30
16578;DHT22;8401;52.528;13.340;2023-07-13T12:57:54;26.80;77.90
16578;DHT22;8401;52.528;13.340;2023-07-13T13:00:31;26.50;79.20
16578;DHT22;8401;52.528;13.340;2023-07-13T13:03:51;26.50;79.30
16578;DHT22;8401;52.528;13.340;2023-07-13T13:08:46;26.30;80.30
16578;DHT22;8401;52.528;13.340;2023-07-13T13:11:20;26.70;79.90
16578;DHT22;8401;52.528;13.340;2023-07-13T13:13:46;26.90;79.10
16578;DHT22;8401;52.528;13.340;2023-07-13T13:16:31;27.40;79.90
16578;DHT22;8401;52.528;13.340;2023-07-13T13:19:01;27.70;80.00
16578;DHT22;8401;52.528;13.340;2023-07-13T13:21:31;27.70;79.80
16578;DHT22;8401;52.528;13.340;2023-07-13T13:23:58;27.80;79.50
16578;DHT22;8401;52.528;13.340;2023-07-13T13:26:23;27.70;79.80
16578;DHT22;8401;52.528;13.340;2023-07-13T13:28:49;27.10;79.00
16578;DHT22;8401;52.528;13.340;2023-07-13T13:31:15;27.10;79.10
16578;DHT22;8401;52.528;13.340;2023-07-13T13:33:42;26.70;79.30
16578;DHT22;8401;52.528;13.340;2023-07-13T13:36:20;26.50;80.30
16578;DHT22;8401;52.528;13.340;2023-07-13T13:38:48;26.00;80.80
16578;DHT22;8401;52.528;13.340;2023-07-13T13:41:14;26.00;81.60
16578;DHT22;8401;52.528;13.340;2023-07-13T13:43:41;26.40;80.30
16578;DHT22;8401;52.528;13.340;2023-07-13T13:46:17;26.70;79.20
16578;DHT22;8401;52.528;13.340;2023-07-13T13:48:44;26.70;80.00
16578;DHT22;8401;52.528;13.340;2023-07-13T13:51:23;26.80;80.30
16578;DHT22;8401;52.528;13.340;2023-07-13T13:53:49;27.10;80.00
16578;DHT22;8401;52.528;13.340;2023-07-13T13:56:17;26.90;79.20
16578;DHT22;8401;52.528;13.340;2023-07-13T13:58:43;27.20;79.30
16578;DHT22;8401;52.528;13.340;2023-07-13T14:01:20;27.10;79.30
16578;DHT22;8401;52.528;13.340;2023-07-13T14:03:46;27.10;79.10
16578;DHT22;8401;52.528;13.340;2023-07-13T14:06:15;27.20;79.60
16578;DHT22;8401;52.528;13.340;2023-07-13T14:08:42;26.70;80.20
16578;DHT22;8401;52.528;13.340;2023-07-13T14:11:12;26.60;80.40
16578;DHT22;8401;52.528;13.340;2023-07-13T14:13:51;26.40;81.10
16578;DHT22;8401;52.528;13.340;2023-07-13T14:16:19;26.40;81.80
16578;DHT22;8401;52.528;13.340;2023-07-13T14:18:46;26.60;81.40
16578;DHT22;8401;52.528;13.340;2023-07-13T14:21:14;26.50;81.90
16578;DHT22;8401;52.528;13.340;2023-07-13T14:23:41;26.60;82.40
16578;DHT22;8401;52.528;13.340;2023-07-13T14:26:16;26.80;82.20
16578;DHT22;8401;52.528;13.340;2023-07-13T14:28:44;26.60;83.00
16578;DHT22;8401;52.528;13.340;2023-07-13T14:31:13;26.60;82.70
16578;DHT22;8401;52.528;13.340;2023-07-13T14:33:39;26.50;82.40
16578;DHT22;8401;52.528;13.340;2023-07-13T14:36:52;26.80;82.60
16578;DHT22;8401;52.528;13.340;2023-07-13T14:39:23;26.50;81.70
16578;DHT22;8401;52.528;13.340;2023-07-13T14:41:54;26.30;82.20
16578;DHT22;8401;52.528;13.340;2023-07-13T14:44:25;26.20;82.40
16578;DHT22;8401;52.528;13.340;2023-07-13T14:46:52;26.10;82.20
16578;DHT22;8401;52.528;13.340;2023-07-13T14:49:32;26.30;82.70
16578;DHT22;8401;52.528;13.340;2023-07-13T14:52:00;26.50;81.70
16578;DHT22;8401;52.528;13.340;2023-07-13T14:54:26;26.20;80.00
16578;DHT22;8401;52.528;13.340;2023-07-13T14:56:52;26.20;80.40
16578;DHT22;8401;52.528;13.340;2023-07-13T14:59:18;26.40;80.40
16578;DHT22;8401;52.528;13.340;2023-07-13T15:01:45;26.60;80.70
16578;DHT22;8401;52.528;13.340;2023-07-13T15:04:11;26.60;80.80
16578;DHT22;8401;52.528;13.340;2023-07-13T15:09:21;27.00;78.90
16578;DHT22;8401;52.528;13.340;2023-07-13T15:11:47;27.10;77.60
16578;DHT22;8401;52.528;13.340;2023-07-13T15:14:13;27.00;76.90
16578;DHT22;8401;52.528;13.340;2023-07-13T15:16:38;27.30;75.90
16578;DHT22;8401;52.528;13.340;2023-07-13T15:19:04;27.10;75.90
16578;DHT22;8401;52.528;13.340;2023-07-13T15:21:29;27.00;77.10
16578;DHT22;8401;52.528;13.340;2023-07-13T15:24:00;26.90;77.70
16578;DHT22;8401;52.528;13.340;2023-07-13T15:26:25;27.00;78.50
16578;DHT22;8401;52.528;13.340;2023-07-13T15:28:51;27.00;78.90
16578;DHT22;8401;52.528;13.340;2023-07-13T15:31:25;27.20;79.40
16578;DHT22;8401;52.528;13.340;2023-07-13T15:33:53;26.90;78.80
16578;DHT22;8401;52.528;13.340;2023-07-13T15:36:21;26.40;79.10
16578;DHT22;8401;52.528;13.340;2023-07-13T15:38:48;26.40;80.20
16578;DHT22;8401;52.528;13.340;2023-07-13T15:41:26;26.40;80.80
16578;DHT22;8401;52.528;13.340;2023-07-13T15:43:55;26.20;81.30
16578;DHT22;8401;52.528;13.340;2023-07-13T15:46:25;26.20;81.30
16578;DHT22;8401;52.528;13.340;2023-07-13T15:48:52;26.20;82.30
16578;DHT22;8401;52.528;13.340;2023-07-13T15:51:26;26.20;82.30
16578;DHT22;8401;52.528;13.340;2023-07-13T15:53:54;26.60;82.10
16578;DHT22;8401;52.528;13.340;2023-07-13T15:56:22;26.70;82.00
16578;DHT22;8401;52.528;13.340;2023-07-13T15:58:49;26.60;80.80
16578;DHT22;8401;52.528;13.340;2023-07-13T16:01:15;26.40;81.20
16578;DHT22;8401;52.528;13.340;2023-07-13T16:03:41;26.20;80.20
16578;DHT22;8401;52.528;13.340;2023-07-13T16:06:36;25.80;79.60
16578;DHT22;8401;52.528;13.340;2023-07-13T16:09:04;25.60;80.50
16578;DHT22;8401;52.528;13.340;2023-07-13T16:11:36;25.70;81.20
16578;DHT22;8401;52.528;13.340;2023-07-13T16:14:03;26.00;81.30
16578;DHT22;8401;52.528;13.340;2023-07-13T16:16:31;25.80;80.80
16578;DHT22;8401;52.528;13.340;2023-07-13T16:18:58;25.90;81.70
16578;DHT22;8401;52.528;13.340;2023-07-13T16:21:26;25.90;82.20
16578;DHT22;8401;52.528;13.340;2023-07-13T16:23:53;25.90;81.40
16578;DHT22;8401;52.528;13.340;2023-07-13T16:26:31;26.10;81.50
16578;DHT22;8401;52.528;13.340;2023-07-13T16:31:40;26.00;81.60
16578;DHT22;8401;52.528;13.340;2023-07-13T16:34:07;26.10;81.20